Time;durP1;ratioP1;P1;durP2;ratioP2;P2;SDS_P1;SDS_P2;PMS_P1;PMS_P2;Temp;Humidity;BMP_temperature;BMP_pressure;BME280_temperature;BME280_humidity;BME280_pressure;Samples;Min_cycle;Max_cycle;Signal;HPM_P1;HPM_P2
2024/02/11 00:02:11;;;;;;;11.23;4.07;;;11.00;99.90;;;;;;5081376;28;20028;-65
2024/02/11 00:04:37;;;;;;;14.70;4.97;;;11.10;99.90;;;;;;5081207;28;20034;-65
2024/02/11 00:07:03;;;;;;;10.85;5.00;;;11.10;99.90;;;;;;5079797;28;20269;-65
2024/02/11 00:09:29;;;;;;;12.57;4.50;;;10.90;99.90;;;;;;5086097;28;20015;-65
2024/02/11 00:11:55;;;;;;;13.43;5.90;;;11.00;99.90;;;;;;5101489;28;20070;-65
2024/02/11 00:14:21;;;;;;;16.20;4.90;;;10.90;99.90;;;;;;5101016;28;20259;-65
2024/02/11 00:16:46;;;;;;;9.77;5.25;;;11.00;99.90;;;;;;5099623;28;20023;-66
2024/02/11 00:19:12;;;;;;;13.63;5.38;;;10.80;99.90;;;;;;5101388;28;20558;-65
2024/02/11 00:21:38;;;;;;;14.65;5.53;;;11.00;99.90;;;;;;5101074;28;20315;-65
2024/02/11 00:24:04;;;;;;;11.40;4.90;;;11.10;99.90;;;;;;5100795;28;20031;-65
2024/02/11 00:26:30;;;;;;;21.45;6.57;;;11.20;99.90;;;;;;5100996;28;20300;-65
2024/02/11 00:28:57;;;;;;;13.65;5.20;;;11.00;99.90;;;;;;5101258;28;20076;-65
2024/02/11 00:31:25;;;;;;;15.60;4.93;;;10.90;99.90;;;;;;5101054;28;20065;-65
2024/02/11 00:33:51;;;;;;;14.15;4.88;;;11.00;99.90;;;;;;5099913;28;20205;-65
2024/02/11 00:36:17;;;;;;;9.63;5.07;;;10.90;99.90;;;;;;5101219;28;20392;-65
2024/02/11 00:38:42;;;;;;;8.77;4.45;;;11.00;99.90;;;;;;5100848;28;20016;-65
2024/02/11 00:41:08;;;;;;;10.63;5.03;;;10.80;99.90;;;;;;5101030;28;20032;-65
2024/02/11 00:43:37;;;;;;;17.05;5.18;;;10.90;99.90;;;;;;5100995;28;20024;-66
2024/02/11 00:46:04;;;;;;;17.13;5.75;;;11.00;99.90;;;;;;5101119;28;20024;-63
2024/02/11 00:48:30;;;;;;;10.38;4.78;;;10.90;99.90;;;;;;5101056;28;20085;-63
2024/02/11 00:50:56;;;;;;;9.65;5.15;;;10.80;99.90;;;;;;5087533;28;20073;-63
2024/02/11 00:53:25;;;;;;;11.45;4.53;;;10.70;99.90;;;;;;5080810;28;20036;-63
2024/02/11 00:55:51;;;;;;;8.00;3.90;;;10.80;99.90;;;;;;5080748;28;20024;-62
2024/02/11 00:58:18;;;;;;;13.10;5.63;;;10.90;99.90;;;;;;5080823;28;20032;-63
2024/02/11 01:00:47;;;;;;;6.57;3.88;;;10.70;99.90;;;;;;5075713;28;20031;-62
2024/02/11 01:03:15;;;;;;;19.50;4.07;;;10.70;99.90;;;;;;5061673;28;20029;-63
2024/02/11 01:05:44;;;;;;;9.48;3.45;;;10.80;99.90;;;;;;5060524;28;20244;-63
2024/02/11 01:08:11;;;;;;;8.80;3.75;;;10.70;99.90;;;;;;5060882;28;20035;-64
2024/02/11 01:10:38;;;;;;;14.18;4.80;;;10.80;99.90;;;;;;5060484;28;20021;-67
2024/02/11 01:13:04;;;;;;;6.63;3.45;;;10.80;99.90;;;;;;5060291;28;20089;-63
2024/02/11 01:15:30;;;;;;;6.22;3.40;;;10.70;99.90;;;;;;5060280;28;20443;-63
2024/02/11 01:17:55;;;;;;;10.15;3.72;;;10.80;99.90;;;;;;5059057;28;20111;-63
2024/02/11 01:20:21;;;;;;;9.13;3.40;;;10.80;99.90;;;;;;5060212;28;20087;-63
2024/02/11 01:22:47;;;;;;;8.00;3.47;;;10.80;99.90;;;;;;5060349;28;20024;-63
2024/02/11 01:25:19;;;;;;;5.13;3.13;;;10.70;99.90;;;;;;5059150;28;20066;-62
2024/02/11 01:27:45;;;;;;;9.25;3.30;;;10.70;99.90;;;;;;5060459;28;20040;-63
2024/02/11 01:30:11;;;;;;;6.30;3.47;;;10.90;99.90;;;;;;5060507;28;20221;-63
2024/02/11 01:32:37;;;;;;;8.02;3.65;;;10.80;99.90;;;;;;5060224;28;20091;-63
2024/02/11 01:35:02;;;;;;;10.95;3.58;;;10.70;99.90;;;;;;5060888;28;20037;-63
2024/02/11 01:37:28;;;;;;;8.82;4.43;;;10.80;99.90;;;;;;5063855;28;20343;-63
2024/02/11 01:39:54;;;;;;;8.85;4.32;;;10.90;99.90;;;;;;5063678;28;20088;-65
2024/02/11 01:42:19;;;;;;;9.93;4.38;;;10.70;99.90;;;;;;5063727;28;20025;-65
2024/02/11 01:44:45;;;;;;;11.07;4.10;;;10.70;99.90;;;;;;5063935;28;20025;-65
2024/02/11 01:47:11;;;;;;;9.43;4.45;;;;;;;;;;5063788;28;20064;-63
2024/02/11 01:49:38;;;;;;;12.70;4.53;;;10.70;99.90;;;;;;5063817;28;20059;-63
2024/02/11 01:52:05;;;;;;;11.73;4.65;;;10.70;99.90;;;;;;5063611;28;20017;-63
2024/02/11 01:54:32;;;;;;;11.45;4.25;;;10.80;99.90;;;;;;5063393;28;20100;-63
2024/02/11 01:56:58;;;;;;;10.52;4.05;;;10.70;99.90;;;;;;5063690;28;20017;-63
2024/02/11 01:59:25;;;;;;;6.88;4.07;;;10.40;99.90;;;;;;5063677;28;20048;-63
2024/02/11 02:01:50;;;;;;;11.88;4.85;;;10.60;99.90;;;;;;5063648;28;20029;-63
2024/02/11 02:04:16;;;;;;;10.20;4.40;;;10.60;99.90;;;;;;5063465;28;20066;-63
2024/02/11 02:06:42;;;;;;;11.95;4.82;;;10.60;99.90;;;;;;5076070;28;20017;-63
2024/02/11 02:09:10;;;;;;;15.63;4.63;;;10.60;99.90;;;;;;5083231;28;20020;-63
2024/02/11 02:11:38;;;;;;;8.50;4.47;;;10.30;99.90;;;;;;5083255;28;20036;-63
2024/02/11 02:14:05;;;;;;;12.65;6.07;;;10.70;99.90;;;;;;5082003;28;20404;-63
2024/02/11 02:16:30;;;;;;;13.00;4.95;;;10.40;99.90;;;;;;5082777;28;20328;-64
2024/02/11 02:18:56;;;;;;;11.93;5.35;;;10.50;99.90;;;;;;5103303;28;20091;-63
2024/02/11 02:21:24;;;;;;;15.48;5.10;;;10.40;99.90;;;;;;5103170;28;20031;-63
2024/02/11 02:23:50;;;;;;;10.80;5.15;;;10.60;99.90;;;;;;5103223;28;20067;-63
2024/02/11 02:26:16;;;;;;;9.15;4.43;;;10.40;99.90;;;;;;5103474;28;20019;-63
2024/02/11 02:28:42;;;;;;;13.88;4.50;;;10.60;99.90;;;;;;5103089;28;20039;-64
2024/02/11 02:31:07;;;;;;;8.65;4.22;;;10.40;99.90;;;;;;5103442;28;20046;-63
2024/02/11 02:33:36;;;;;;;9.75;4.05;;;10.50;99.90;;;;;;5102911;28;20052;-63
2024/02/11 02:36:05;;;;;;;11.55;4.70;;;10.50;99.90;;;;;;5103346;28;20024;-63
2024/02/11 02:38:32;;;;;;;;;;;10.50;99.90;;;;;;5103665;28;20016;-64
2024/02/11 02:40:58;;;;;;;5.85;3.47;;;10.60;99.90;;;;;;5102917;28;19900;-63
2024/02/11 02:43:25;;;;;;;12.05;2.90;;;10.50;99.90;;;;;;5102930;28;20055;-64
2024/02/11 02:45:51;;;;;;;6.53;2.70;;;10.60;99.90;;;;;;5102424;28;20020;-63
2024/02/11 02:48:16;;;;;;;8.70;3.17;;;10.70;99.90;;;;;;5102860;28;20039;-63
2024/02/11 02:50:43;;;;;;;10.65;3.45;;;10.80;99.90;;;;;;5102816;28;20028;-64
2024/02/11 02:53:10;;;;;;;5.53;2.63;;;10.80;99.90;;;;;;5102646;28;20030;-64
2024/02/11 02:55:36;;;;;;;11.43;2.88;;;10.50;99.90;;;;;;5102790;28;20024;-63
2024/02/11 02:58:07;;;;;;;6.97;2.90;;;10.90;99.90;;;;;;5102741;28;20462;-65
2024/02/11 03:00:34;;;;;;;5.03;2.70;;;10.80;99.90;;;;;;5102683;28;20028;-65
2024/02/11 03:03:03;;;;;;;9.15;3.17;;;10.90;99.90;;;;;;5102804;28;20426;-65
2024/02/11 03:05:29;;;;;;;8.85;3.92;;;10.80;99.90;;;;;;5102872;28;20085;-67
2024/02/11 03:07:56;;;;;;;8.43;3.45;;;10.80;99.90;;;;;;5102508;28;20051;-67
2024/02/11 03:10:22;;;;;;;7.93;3.42;;;10.90;99.90;;;;;;5102395;28;20365;-67
2024/02/11 03:12:48;;;;;;;6.25;4.18;;;10.90;99.90;;;;;;5102240;28;20028;-67
2024/02/11 03:15:15;;;;;;;10.95;3.38;;;10.80;99.90;;;;;;5102222;28;20027;-67
2024/02/11 03:17:41;;;;;;;8.02;3.50;;;10.80;99.90;;;;;;5102297;28;20024;-67
2024/02/11 03:20:08;;;;;;;5.65;3.85;;;10.80;99.90;;;;;;5102574;28;20093;-68
2024/02/11 03:22:34;;;;;;;6.85;3.47;;;10.60;99.90;;;;;;5102117;28;20016;-68
2024/02/11 03:24:59;;;;;;;7.13;3.05;;;10.70;99.90;;;;;;5102138;28;20133;-68
2024/02/11 03:27:25;;;;;;;5.70;2.85;;;10.60;99.90;;;;;;5102333;28;20023;-68
2024/02/11 03:29:50;;;;;;;7.28;3.45;;;10.80;99.90;;;;;;5102054;28;20027;-68
2024/02/11 03:32:16;;;;;;;8.77;3.20;;;10.70;99.90;;;;;;5100553;28;20023;-68
2024/02/11 03:34:42;;;;;;;5.40;2.95;;;10.70;99.90;;;;;;5101982;28;20104;-67
2024/02/11 03:37:08;;;;;;;5.95;3.63;;;10.50;99.90;;;;;;5088377;28;20334;-68
2024/02/11 03:39:34;;;;;;;9.50;3.40;;;10.70;99.90;;;;;;5081779;28;20208;-68
2024/02/11 03:42:02;;;;;;;9.02;3.00;;;10.40;99.90;;;;;;5081641;28;20020;-68
2024/02/11 03:44:27;;;;;;;8.73;3.08;;;10.30;99.90;;;;;;5081525;28;20013;-68
2024/02/11 03:46:53;;;;;;;12.35;3.92;;;;;;;;;;5081654;28;20024;-68
2024/02/11 03:49:20;;;;;;;5.32;3.50;;;10.50;99.90;;;;;;5081631;28;20028;-68
2024/02/11 03:51:46;;;;;;;8.95;4.25;;;10.50;99.90;;;;;;5081188;28;20035;-68
2024/02/11 03:54:12;;;;;;;6.40;4.15;;;10.40;99.90;;;;;;5081110;28;20040;-68
2024/02/11 03:56:40;;;;;;;11.32;4.18;;;10.50;99.90;;;;;;5081428;28;20062;-68
2024/02/11 03:59:08;;;;;;;9.80;3.70;;;10.50;99.90;;;;;;5080425;28;20016;-67
2024/02/11 04:01:33;;;;;;;6.43;3.90;;;10.50;99.90;;;;;;5081163;28;20074;-68
2024/02/11 04:04:00;;;;;;;9.73;4.55;;;10.40;99.90;;;;;;5081395;28;20024;-68
2024/02/11 04:06:27;;;;;;;12.45;5.25;;;10.40;99.90;;;;;;5081132;28;20016;-68
2024/02/11 04:08:52;;;;;;;7.43;4.35;;;10.40;99.90;;;;;;5080954;28;20328;-68
2024/02/11 04:11:19;;;;;;;9.73;4.05;;;10.30;99.90;;;;;;5081069;28;20059;-68
2024/02/11 04:13:44;;;;;;;12.73;4.82;;;10.30;99.90;;;;;;5080911;28;20032;-67
2024/02/11 04:16:15;;;;;;;15.40;5.03;;;10.30;99.90;;;;;;5080996;28;20087;-69
2024/02/11 04:18:43;;;;;;;13.13;5.10;;;10.20;99.90;;;;;;5096209;28;20059;-66
2024/02/11 04:21:10;;;;;;;10.60;4.85;;;10.20;99.90;;;;;;5101098;28;20032;-68
2024/02/11 04:23:38;;;;;;;13.15;4.80;;;10.40;99.90;;;;;;5101424;28;20028;-68
2024/02/11 04:26:10;;;;;;;6.93;3.90;;;10.20;99.90;;;;;;5101095;28;20066;-68
2024/02/11 04:28:36;;;;;;;9.02;3.75;;;10.10;99.90;;;;;;5101156;28;20069;-69
2024/02/11 04:31:08;;;;;;;10.20;5.10;;;10.50;99.90;;;;;;5101014;28;20092;-68
2024/02/11 04:33:36;;;;;;;8.50;3.83;;;10.30;99.90;;;;;;5100914;28;20052;-69
2024/02/11 04:36:04;;;;;;;11.85;4.10;;;10.30;99.90;;;;;;5100914;28;20028;-68
2024/02/11 04:38:30;;;;;;;12.48;4.18;;;10.20;99.90;;;;;;5087946;28;20099;-68
2024/02/11 04:40:58;;;;;;;11.68;3.90;;;10.10;99.90;;;;;;5079503;28;20020;-66
2024/02/11 04:43:26;;;;;;;6.35;4.05;;;10.30;99.90;;;;;;5080307;28;20242;-65
2024/02/11 04:45:52;;;;;;;7.75;4.50;;;10.20;99.90;;;;;;5080384;28;20119;-68
2024/02/11 04:48:24;;;;;;;7.25;4.13;;;10.20;99.90;;;;;;5080387;28;20050;-67
2024/02/11 04:50:50;;;;;;;7.22;3.90;;;10.30;99.90;;;;;;5080401;28;20115;-67
2024/02/11 04:53:17;;;;;;;7.65;3.90;;;10.30;99.90;;;;;;5080604;28;20021;-67
2024/02/11 04:55:46;;;;;;;7.13;4.47;;;10.20;99.90;;;;;;5080566;28;20043;-67
2024/02/11 04:58:16;;;;;;;9.95;5.05;;;10.10;99.90;;;;;;5080821;28;20021;-67
2024/02/11 05:00:42;;;;;;;10.40;4.32;;;10.40;99.90;;;;;;5081197;28;20021;-68
2024/02/11 05:03:10;;;;;;;6.97;4.13;;;10.20;99.90;;;;;;5080481;28;20027;-67
2024/02/11 05:05:37;;;;;;;10.98;4.75;;;10.30;99.90;;;;;;5080496;28;20025;-68
2024/02/11 05:08:04;;;;;;;8.23;3.85;;;10.30;99.90;;;;;;5080801;28;20250;-67
2024/02/11 05:10:33;;;;;;;14.15;5.18;;;10.10;99.90;;;;;;5083690;28;20092;-67
2024/02/11 05:13:04;;;;;;;10.00;3.90;;;10.20;99.90;;;;;;5084498;28;20026;-67
2024/02/11 05:15:30;;;;;;;6.45;3.97;;;10.20;99.90;;;;;;5084468;28;20091;-67
2024/02/11 05:17:56;;;;;;;8.85;3.85;;;10.20;99.90;;;;;;5084213;28;20025;-67
2024/02/11 05:20:29;;;;;;;6.70;3.65;;;10.20;99.90;;;;;;5084192;28;20038;-68
2024/02/11 05:22:59;;;;;;;9.02;3.92;;;10.20;99.90;;;;;;5084395;28;20012;-67
2024/02/11 05:25:26;;;;;;;10.98;3.95;;;10.40;99.90;;;;;;5084377;28;20016;-68
2024/02/11 05:27:56;;;;;;;11.35;4.45;;;10.30;99.90;;;;;;5083977;28;20031;-68
2024/02/11 05:30:23;;;;;;;8.40;4.72;;;10.30;99.90;;;;;;5084342;28;20027;-68
2024/02/11 05:32:53;;;;;;;9.02;4.47;;;10.40;99.90;;;;;;5083817;28;20060;-67
2024/02/11 05:35:23;;;;;;;12.35;4.18;;;10.30;99.90;;;;;;5083973;28;20081;-67
2024/02/11 05:37:57;;;;;;;8.98;4.15;;;10.30;99.90;;;;;;5083967;28;20021;-67
2024/02/11 05:40:23;;;;;;;11.63;5.00;;;10.40;99.90;;;;;;5084003;28;20017;-68
2024/02/11 05:42:49;;;;;;;9.88;4.93;;;10.30;99.90;;;;;;5083851;28;20218;-67
2024/02/11 05:45:16;;;;;;;12.82;4.55;;;10.10;99.90;;;;;;5083986;28;20017;-67
2024/02/11 05:47:42;;;;;;;9.73;4.28;;;10.10;99.90;;;;;;5083766;28;20020;-65
2024/02/11 05:50:08;;;;;;;9.57;4.78;;;10.10;99.90;;;;;;5083232;28;20030;-68
2024/02/11 05:52:35;;;;;;;9.55;4.10;;;10.20;99.90;;;;;;5082583;28;20193;-67
2024/02/11 05:55:01;;;;;;;11.48;4.88;;;10.70;99.90;;;;;;5083136;28;20204;-67
2024/02/11 05:57:28;;;;;;;10.75;5.07;;;10.20;99.90;;;;;;5083065;28;20024;-68
2024/02/11 05:59:55;;;;;;;9.63;5.20;;;10.20;99.90;;;;;;5081897;28;20312;-66
2024/02/11 06:02:21;;;;;;;7.80;5.10;;;10.10;99.90;;;;;;5083398;28;20028;-66
2024/02/11 06:04:49;;;;;;;12.05;4.40;;;10.20;99.90;;;;;;5083545;28;20355;-67
2024/02/11 06:07:15;;;;;;;9.35;4.47;;;10.20;99.90;;;;;;5079704;28;20088;-65
2024/02/11 06:09:41;;;;;;;8.40;3.95;;;10.20;99.90;;;;;;5083539;28;20020;-67
2024/02/11 06:12:07;;;;;;;10.35;4.95;;;10.00;99.90;;;;;;5083216;28;20194;-67
2024/02/11 06:14:33;;;;;;;8.15;4.80;;;10.10;99.90;;;;;;5081957;28;20036;-68
2024/02/11 06:16:59;;;;;;;7.78;4.95;;;10.00;99.90;;;;;;5083097;28;20020;-68
2024/02/11 06:19:25;;;;;;;9.18;4.68;;;9.90;99.90;;;;;;5083121;28;20050;-68
2024/02/11 06:21:51;;;;;;;9.80;5.30;;;10.10;99.90;;;;;;5071676;28;20025;-68
2024/02/11 06:24:17;;;;;;;15.82;5.00;;;10.10;99.90;;;;;;5063356;28;20151;-69
2024/02/11 06:26:43;;;;;;;10.65;4.75;;;10.00;99.90;;;;;;5063148;28;20321;-69
2024/02/11 06:29:08;;;;;;;6.90;4.45;;;10.00;99.90;;;;;;5063070;28;20037;-69
2024/02/11 06:31:34;;;;;;;9.25;5.10;;;10.40;99.90;;;;;;5062851;28;20317;-69
2024/02/11 06:34:01;;;;;;;11.00;5.95;;;10.00;99.90;;;;;;5062579;28;20317;-69
2024/02/11 06:36:27;;;;;;;6.82;4.68;;;10.30;99.90;;;;;;5062913;28;20017;-68
2024/02/11 06:38:58;;;;;;;12.73;6.30;;;10.00;99.90;;;;;;5062536;28;20071;-67
2024/02/11 06:41:24;;;;;;;10.45;5.18;;;10.00;99.90;;;;;;5062574;28;20083;-67
2024/02/11 06:43:50;;;;;;;19.70;7.45;;;10.00;99.90;;;;;;5062773;28;20090;-67
2024/02/11 06:46:16;;;;;;;7.78;4.50;;;10.10;99.90;;;;;;5062471;28;20021;-68
2024/02/11 06:48:43;;;;;;;8.73;5.28;;;10.00;99.90;;;;;;5062540;28;20024;-66
2024/02/11 06:51:09;;;;;;;8.52;5.43;;;9.90;99.90;;;;;;5067016;28;20051;-66
2024/02/11 06:53:36;;;;;;;11.02;5.57;;;9.80;99.90;;;;;;5082111;28;20052;-66
2024/02/11 06:56:02;;;;;;;9.65;5.53;;;;;;;;;;5079657;28;20043;-66
2024/02/11 06:58:27;;;;;;;10.43;5.47;;;9.40;99.90;;;;;;5082710;28;20028;-66
2024/02/11 07:00:53;;;;;;;9.20;5.47;;;10.00;99.90;;;;;;5082190;28;20025;-66
2024/02/11 07:03:19;;;;;;;13.02;5.88;;;10.00;99.90;;;;;;5082518;28;20032;-67
2024/02/11 07:05:46;;;;;;;11.05;6.75;;;10.00;99.90;;;;;;5082239;28;20016;-67
2024/02/11 07:08:11;;;;;;;11.30;5.88;;;10.00;99.90;;;;;;5082136;28;20348;-68
2024/02/11 07:10:39;;;;;;;10.80;6.13;;;10.00;99.90;;;;;;5082056;28;20092;-67
2024/02/11 07:13:05;;;;;;;13.65;6.35;;;10.10;99.90;;;;;;5082098;28;20016;-68
2024/02/11 07:15:33;;;;;;;10.52;6.07;;;10.00;99.90;;;;;;5082033;28;20036;-67
2024/02/11 07:17:59;;;;;;;10.02;6.57;;;10.00;99.90;;;;;;5082058;28;20092;-67
2024/02/11 07:20:24;;;;;;;14.70;6.45;;;10.10;99.90;;;;;;5082237;28;20040;-67
2024/02/11 07:22:50;;;;;;;11.73;6.25;;;10.10;99.90;;;;;;5081884;28;20039;-67
2024/02/11 07:25:16;;;;;;;12.95;7.07;;;10.00;99.90;;;;;;5082088;28;20024;-67
2024/02/11 07:27:42;;;;;;;11.45;6.75;;;10.00;99.90;;;;;;5081792;28;20543;-68
2024/02/11 07:30:11;;;;;;;12.45;6.22;;;10.10;99.90;;;;;;5081677;28;20032;-68
2024/02/11 07:32:38;;;;;;;10.50;6.22;;;10.30;99.90;;;;;;5081505;28;20090;-68
2024/02/11 07:35:03;;;;;;;11.30;6.07;;;10.00;99.90;;;;;;5081455;28;20044;-69
2024/02/11 07:37:29;;;;;;;9.43;6.32;;;10.20;99.90;;;;;;5081687;28;20040;-68
2024/02/11 07:39:55;;;;;;;12.48;6.50;;;10.20;99.90;;;;;;5081695;28;20040;-68
2024/02/11 07:42:20;;;;;;;10.30;6.40;;;10.10;99.90;;;;;;5081758;28;20046;-68
2024/02/11 07:44:46;;;;;;;9.32;5.72;;;10.10;99.90;;;;;;5081380;28;20078;-68
2024/02/11 07:47:12;;;;;;;12.68;6.68;;;10.10;99.90;;;;;;5081475;28;20138;-70
2024/02/11 07:49:38;;;;;;;11.85;6.45;;;10.40;99.90;;;;;;5081375;28;20339;-68
2024/02/11 07:52:06;;;;;;;12.80;7.13;;;10.20;99.90;;;;;;5069300;28;20108;-69
2024/02/11 07:54:33;;;;;;;9.25;7.22;;;10.00;99.90;;;;;;5061445;28;20041;-68
2024/02/11 07:56:59;;;;;;;15.68;7.18;;;10.20;99.90;;;;;;5061193;28;20021;-68
2024/02/11 07:59:25;;;;;;;13.60;7.50;;;;;;;;;;5061166;28;20024;-68
2024/02/11 08:01:51;;;;;;;10.23;6.57;;;;;;;;;;5061469;28;20060;-67
2024/02/11 08:04:18;;;;;;;12.60;7.20;;;10.80;99.90;;;;;;5061304;28;20025;-66
2024/02/11 08:06:45;;;;;;;9.27;6.68;;;10.40;99.90;;;;;;5061249;28;20017;-65
2024/02/11 08:09:11;;;;;;;65.07;36.83;;;10.40;99.90;;;;;;5061154;28;20066;-66
2024/02/11 08:11:37;;;;;;;45.15;25.05;;;10.50;99.90;;;;;;5061169;28;20013;-66
2024/02/11 08:14:03;;;;;;;56.15;33.47;;;10.50;99.90;;;;;;5060868;28;20032;-66
2024/02/11 08:16:29;;;;;;;36.53;23.65;;;10.40;99.90;;;;;;5061017;28;20375;-66
2024/02/11 08:18:55;;;;;;;10.13;7.05;;;10.70;99.90;;;;;;5059850;28;20036;-66
2024/02/11 08:21:21;;;;;;;7.78;6.88;;;10.80;99.90;;;;;;5060815;28;20055;-66
2024/02/11 08:23:47;;;;;;;10.48;6.28;;;10.90;99.90;;;;;;5061018;28;20025;-66
2024/02/11 08:26:13;;;;;;;7.05;4.90;;;10.80;99.90;;;;;;5060785;28;20024;-66
2024/02/11 08:28:39;;;;;;;7.38;5.55;;;11.00;99.90;;;;;;5060764;28;20025;-67
2024/02/11 08:31:04;;;;;;;10.55;5.88;;;10.60;99.90;;;;;;5060831;28;20029;-66
2024/02/11 08:33:30;;;;;;;7.75;4.85;;;10.90;99.90;;;;;;5060676;28;20053;-66
2024/02/11 08:35:56;;;;;;;7.85;6.43;;;10.70;99.90;;;;;;5060750;28;20029;-69
2024/02/11 08:38:22;;;;;;;7.15;4.90;;;11.00;99.90;;;;;;5060915;28;20070;-68
2024/02/11 08:40:48;;;;;;;11.65;7.45;;;10.90;99.90;;;;;;5060788;28;20224;-69
2024/02/11 08:43:14;;;;;;;10.13;6.97;;;11.10;99.90;;;;;;5060993;28;20085;-68
2024/02/11 08:45:40;;;;;;;13.05;7.88;;;11.00;99.90;;;;;;5066865;28;20023;-68
2024/02/11 08:48:06;;;;;;;6.65;4.78;;;11.30;99.90;;;;;;5067514;28;20032;-67
2024/02/11 08:50:31;;;;;;;7.25;4.57;;;11.00;99.90;;;;;;5067146;28;20032;-66
2024/02/11 08:52:59;;;;;;;8.27;6.60;;;;;;;;;;5067435;28;20028;-66
2024/02/11 08:55:24;;;;;;;6.68;5.00;;;11.10;99.90;;;;;;5067366;28;20154;-66
2024/02/11 08:57:51;;;;;;;8.73;4.45;;;11.00;99.90;;;;;;5067422;28;20410;-66
2024/02/11 09:00:18;;;;;;;8.30;4.97;;;;;;;;;;5067129;28;20024;-66
2024/02/11 09:02:44;;;;;;;4.65;4.07;;;11.00;99.90;;;;;;5067309;28;20031;-67
2024/02/11 09:05:11;;;;;;;8.07;4.75;;;11.00;99.90;;;;;;5067348;28;20064;-64
2024/02/11 09:07:42;;;;;;;8.13;4.75;;;11.10;99.90;;;;;;5067369;28;20029;-66
2024/02/11 09:10:08;;;;;;;9.85;5.25;;;11.20;99.90;;;;;;5067082;28;20017;-65
2024/02/11 09:12:34;;;;;;;8.50;5.43;;;11.00;99.90;;;;;;5067107;28;20021;-65
2024/02/11 09:15:00;;;;;;;11.50;5.13;;;11.60;99.90;;;;;;5067134;28;20037;-67
2024/02/11 09:17:30;;;;;;;10.40;5.22;;;11.30;99.90;;;;;;5067217;28;20027;-67
2024/02/11 09:19:55;;;;;;;6.95;5.18;;;11.50;99.90;;;;;;5067217;28;20060;-66
2024/02/11 09:22:21;;;;;;;9.43;5.25;;;11.50;99.90;;;;;;5066823;28;20253;-66
2024/02/11 09:24:47;;;;;;;5.13;4.07;;;11.50;99.90;;;;;;5067152;28;20025;-64
2024/02/11 09:27:13;;;;;;;6.07;3.95;;;11.50;99.90;;;;;;5066998;28;20313;-65
2024/02/11 09:29:39;;;;;;;7.57;4.40;;;11.70;99.90;;;;;;5067122;28;20020;-65
2024/02/11 09:32:05;;;;;;;7.43;5.00;;;11.40;99.90;;;;;;5065365;28;20016;-65
2024/02/11 09:34:31;;;;;;;7.18;4.72;;;11.30;99.90;;;;;;5066711;28;20063;-65
2024/02/11 09:36:57;;;;;;;8.07;4.90;;;11.20;99.90;;;;;;5067061;28;20029;-65
2024/02/11 09:39:22;;;;;;;9.07;4.13;;;11.40;99.90;;;;;;5066786;28;20352;-65
2024/02/11 09:41:48;;;;;;;6.55;3.90;;;11.50;99.90;;;;;;5067079;28;20047;-64
2024/02/11 09:44:22;;;;;;;5.75;3.85;;;11.60;99.90;;;;;;5067022;28;20072;-65
2024/02/11 09:46:50;;;;;;;9.10;4.28;;;11.70;99.90;;;;;;5077589;28;20363;-65
2024/02/11 09:49:21;;;;;;;7.13;4.75;;;11.50;99.90;;;;;;5086741;28;20048;-66
2024/02/11 09:51:47;;;;;;;4.85;4.00;;;11.70;99.90;;;;;;5087344;28;20051;-66
2024/02/11 09:54:13;;;;;;;8.07;4.78;;;11.60;99.90;;;;;;5086592;28;20103;-65
2024/02/11 09:56:41;;;;;;;9.45;4.50;;;11.70;99.90;;;;;;5082983;28;20013;-65
2024/02/11 09:59:09;;;;;;;8.43;4.78;;;11.70;99.90;;;;;;5083596;28;20042;-64
2024/02/11 10:01:38;;;;;;;6.75;4.35;;;11.80;99.90;;;;;;5083567;28;20275;-64
2024/02/11 10:04:06;;;;;;;12.15;5.50;;;11.80;99.90;;;;;;5083403;28;20032;-66
2024/02/11 10:06:36;;;;;;;7.53;4.87;;;12.00;99.90;;;;;;5083603;28;20032;-65
2024/02/11 10:09:05;;;;;;;9.15;5.13;;;11.80;99.90;;;;;;5083488;28;20092;-64
2024/02/11 10:11:33;;;;;;;;;;;11.70;99.90;;;;;;5083831;28;20086;-65
2024/02/11 10:13:59;;;;;;;10.23;4.63;;;11.60;99.90;;;;;;5083380;28;19916;-64
2024/02/11 10:16:29;;;;;;;8.90;5.13;;;11.40;99.90;;;;;;5083536;28;20063;-66
2024/02/11 10:18:58;;;;;;;9.65;5.35;;;11.30;99.90;;;;;;5081849;28;20217;-65
2024/02/11 10:21:24;;;;;;;7.90;5.05;;;11.50;99.90;;;;;;5082925;28;20083;-64
2024/02/11 10:23:50;;;;;;;6.05;4.25;;;11.40;99.90;;;;;;5082949;28;20028;-64
2024/02/11 10:26:15;;;;;;;7.43;4.35;;;11.30;99.90;;;;;;5082944;28;20305;-67
2024/02/11 10:28:41;;;;;;;6.05;4.47;;;11.50;99.90;;;;;;5082872;28;20021;-65
2024/02/11 10:31:07;;;;;;;10.15;4.85;;;11.60;99.90;;;;;;5083149;28;20043;-65
2024/02/11 10:33:33;;;;;;;7.53;4.78;;;11.60;99.90;;;;;;5082738;28;20102;-66
2024/02/11 10:36:03;;;;;;;12.68;6.53;;;11.60;99.90;;;;;;5082984;28;20044;-66
2024/02/11 10:38:36;;;;;;;8.07;5.00;;;11.60;99.90;;;;;;5082676;28;20020;-65
2024/02/11 10:41:03;;;;;;;13.55;6.03;;;11.70;99.90;;;;;;5082946;28;20028;-65
2024/02/11 10:43:30;;;;;;;20.25;7.63;;;11.80;99.90;;;;;;5082717;28;20051;-66
2024/02/11 10:45:56;;;;;;;11.00;5.63;;;11.90;99.90;;;;;;5083023;28;20269;-65
2024/02/11 10:48:22;;;;;;;12.65;5.63;;;12.00;99.90;;;;;;5082699;28;20197;-66
2024/02/11 10:51:14;;;;;;;8.15;5.20;;;12.10;99.90;;;;;;5082723;28;20036;-65
2024/02/11 10:53:45;;;;;;;9.70;5.22;;;12.30;99.90;;;;;;5082745;28;20326;-65
2024/02/11 10:56:14;;;;;;;7.20;5.45;;;12.30;99.90;;;;;;5082420;28;20024;-66
2024/02/11 10:58:47;;;;;;;;;;;12.30;99.90;;;;;;5083175;28;20232;-65
2024/02/11 11:01:17;;;;;;;10.55;5.53;;;12.40;99.90;;;;;;5082643;28;19908;-65
2024/02/11 11:03:45;;;;;;;10.40;6.00;;;12.60;99.90;;;;;;5082420;28;20111;-65
2024/02/11 11:06:14;;;;;;;7.93;5.10;;;12.50;99.90;;;;;;5082538;28;20080;-65
2024/02/11 11:08:42;;;;;;;10.18;5.82;;;12.50;99.90;;;;;;5081971;28;20029;-65
2024/02/11 11:11:08;;;;;;;9.48;5.50;;;13.00;99.90;;;;;;5082214;28;20451;-65
2024/02/11 11:13:34;;;;;;;9.38;5.93;;;12.60;99.90;;;;;;5082226;28;20036;-65
2024/02/11 11:16:05;;;;;;;9.27;5.93;;;12.50;99.90;;;;;;5073966;28;20036;-65
2024/02/11 11:18:36;;;;;;;9.77;5.78;;;12.80;99.90;;;;;;5063337;28;20333;-65
2024/02/11 11:21:04;;;;;;;10.13;6.47;;;12.60;99.90;;;;;;5061919;28;20023;-66
2024/02/11 11:23:30;;;;;;;12.27;6.97;;;12.60;99.90;;;;;;5061900;28;20033;-65
2024/02/11 11:25:56;;;;;;;9.65;6.00;;;12.60;99.90;;;;;;5061785;28;20021;-64
2024/02/11 11:28:32;;;;;;;12.25;6.15;;;12.60;99.90;;;;;;5061603;28;20021;-64
2024/02/11 11:30:59;;;;;;;8.68;5.30;;;12.40;99.90;;;;;;5072754;28;20063;-64
2024/02/11 11:33:34;;;;;;;8.70;5.80;;;12.60;99.90;;;;;;5077168;28;20072;-64
2024/02/11 11:36:01;;;;;;;9.95;5.68;;;12.40;99.90;;;;;;5081421;28;20117;-64
2024/02/11 11:38:27;;;;;;;10.88;5.90;;;12.60;99.90;;;;;;5081627;28;20027;-64
2024/02/11 11:40:56;;;;;;;10.18;5.80;;;12.30;99.90;;;;;;5081503;28;20020;-64
2024/02/11 11:43:23;;;;;;;11.50;6.38;;;12.30;99.90;;;;;;5081530;28;20020;-64
2024/02/11 11:45:54;;;;;;;11.05;6.20;;;12.30;99.90;;;;;;5081528;28;20055;-64
2024/02/11 11:48:21;;;;;;;9.77;5.47;;;12.10;99.90;;;;;;5065044;28;20021;-64
2024/02/11 11:50:54;;;;;;;7.63;5.38;;;12.10;99.90;;;;;;5061560;28;20059;-64
2024/02/11 11:53:23;;;;;;;8.05;5.55;;;11.90;99.90;;;;;;5061622;28;20079;-64
2024/02/11 11:55:53;;;;;;;10.30;6.05;;;12.10;99.90;;;;;;5061247;28;20039;-64
2024/02/11 11:58:23;;;;;;;12.48;6.60;;;11.90;99.90;;;;;;5061348;28;20013;-64
2024/02/11 12:00:56;;;;;;;8.70;6.43;;;11.90;99.90;;;;;;5061191;28;20060;-64
2024/02/11 12:03:23;;;;;;;9.38;6.28;;;11.80;99.90;;;;;;5061322;28;20021;-64
2024/02/11 12:05:49;;;;;;;13.75;7.68;;;11.80;99.90;;;;;;5063785;28;20021;-64
2024/02/11 12:08:15;;;;;;;11.63;7.38;;;12.10;99.90;;;;;;5061181;28;20135;-64
2024/02/11 12:10:41;;;;;;;13.27;7.85;;;11.70;99.90;;;;;;5066627;28;20216;-64
2024/02/11 12:13:14;;;;;;;12.88;7.10;;;11.60;99.90;;;;;;5076122;28;20040;-64
2024/02/11 12:15:41;;;;;;;12.80;7.22;;;11.70;99.90;;;;;;5066305;28;20044;-64
2024/02/11 12:18:10;;;;;;;13.60;7.97;;;11.60;99.90;;;;;;5080812;28;20024;-63
2024/02/11 12:20:39;;;;;;;13.85;7.93;;;11.60;99.90;;;;;;5080680;28;20063;-64
2024/02/11 12:23:05;;;;;;;10.57;7.57;;;11.50;99.90;;;;;;5081010;28;20096;-64
2024/02/11 12:25:31;;;;;;;11.27;8.07;;;11.50;99.90;;;;;;5080857;28;20325;-65
2024/02/11 12:28:00;;;;;;;12.02;8.77;;;11.60;99.90;;;;;;5081072;28;20559;-64
2024/02/11 12:30:26;;;;;;;15.27;8.60;;;11.40;99.90;;;;;;5080789;28;20523;-64
2024/02/11 12:32:54;;;;;;;10.20;7.82;;;11.50;99.90;;;;;;5080638;28;20116;-64
2024/02/11 12:35:34;;;;;;;12.40;8.30;;;11.50;99.90;;;;;;5081069;28;20026;-63
2024/02/11 12:38:01;;;;;;;9.80;8.13;;;11.50;99.90;;;;;;5081099;28;20329;-64
2024/02/11 12:40:29;;;;;;;17.13;9.45;;;11.50;99.90;;;;;;5077680;28;20045;-64
2024/02/11 12:42:59;;;;;;;15.20;8.98;;;11.50;99.90;;;;;;5060753;28;20024;-64
2024/02/11 12:45:26;;;;;;;13.48;9.23;;;11.60;99.90;;;;;;5060731;28;20313;-63